sensor_id;sensor_type;location;lat;lon;timestamp;P1;durP1;ratioP1;P2;durP2;ratioP2
17790;SDS011;9019;48.132;-1.210;2024-01-15T00:00:32;59.73;;;32.63;;
17790;SDS011;9019;48.132;-1.210;2024-01-15T00:03:00;60.30;;;33.70;;
17790;SDS011;9019;48.132;-1.210;2024-01-15T00:05:27;56.13;;;32.93;;
17790;SDS011;9019;48.132;-1.210;2024-01-15T00:07:54;62.57;;;33.57;;
17790;SDS011;9019;48.132;-1.210;2024-01-15T00:10:22;55.47;;;32.17;;
17790;SDS011;9019;48.132;-1.210;2024-01-15T00:12:50;52.67;;;31.27;;
17790;SDS011;9019;48.132;-1.210;2024-01-15T00:15:17;58.67;;;34.03;;
17790;SDS011;9019;48.132;-1.210;2024-01-15T00:17:45;56.97;;;34.37;;
17790;SDS011;9019;48.132;-1.210;2024-01-15T00:20:12;61.23;;;33.07;;
17790;SDS011;9019;48.132;-1.210;2024-01-15T00:22:39;57.73;;;33.07;;
17790;SDS011;9019;48.132;-1.210;2024-01-15T00:25:07;53.70;;;32.60;;
17790;SDS011;9019;48.132;-1.210;2024-01-15T00:27:36;55.97;;;31.70;;
17790;SDS011;9019;48.132;-1.210;2024-01-15T00:30:03;58.70;;;33.20;;
17790;SDS011;9019;48.132;-1.210;2024-01-15T00:32:31;57.47;;;31.47;;
17790;SDS011;9019;48.132;-1.210;2024-01-15T00:34:58;54.47;;;31.13;;
17790;SDS011;9019;48.132;-1.210;2024-01-15T00:37:25;56.03;;;31.40;;
17790;SDS011;9019;48.132;-1.210;2024-01-15T00:39:52;53.53;;;30.67;;
17790;SDS011;9019;48.132;-1.210;2024-01-15T00:42:19;54.07;;;30.87;;
17790;SDS011;9019;48.132;-1.210;2024-01-15T00:44:48;54.07;;;31.20;;
17790;SDS011;9019;48.132;-1.210;2024-01-15T00:47:16;57.63;;;32.40;;
17790;SDS011;9019;48.132;-1.210;2024-01-15T00:49:44;58.83;;;32.63;;
17790;SDS011;9019;48.132;-1.210;2024-01-15T00:52:12;56.83;;;31.43;;
17790;SDS011;9019;48.132;-1.210;2024-01-15T00:54:39;53.93;;;31.43;;
17790;SDS011;9019;48.132;-1.210;2024-01-15T00:57:06;53.63;;;30.13;;
17790;SDS011;9019;48.132;-1.210;2024-01-15T00:59:33;51.87;;;30.77;;
17790;SDS011;9019;48.132;-1.210;2024-01-15T01:02:02;54.70;;;31.80;;
17790;SDS011;9019;48.132;-1.210;2024-01-15T01:04:29;57.50;;;32.30;;
17790;SDS011;9019;48.132;-1.210;2024-01-15T01:06:56;55.07;;;31.97;;
17790;SDS011;9019;48.132;-1.210;2024-01-15T01:09:24;58.30;;;33.73;;
17790;SDS011;9019;48.132;-1.210;2024-01-15T01:11:54;58.80;;;34.77;;
17790;SDS011;9019;48.132;-1.210;2024-01-15T01:14:21;57.03;;;32.53;;
17790;SDS011;9019;48.132;-1.210;2024-01-15T01:16:48;53.10;;;30.53;;
17790;SDS011;9019;48.132;-1.210;2024-01-15T01:19:17;53.57;;;31.47;;
17790;SDS011;9019;48.132;-1.210;2024-01-15T01:21:44;51.83;;;30.40;;
17790;SDS011;9019;48.132;-1.210;2024-01-15T01:24:11;52.53;;;30.87;;
17790;SDS011;9019;48.132;-1.210;2024-01-15T01:26:38;55.30;;;30.70;;
17790;SDS011;9019;48.132;-1.210;2024-01-15T01:29:05;54.43;;;30.90;;
17790;SDS011;9019;48.132;-1.210;2024-01-15T01:31:32;52.17;;;30.53;;
17790;SDS011;9019;48.132;-1.210;2024-01-15T01:34:00;47.13;;;29.33;;
17790;SDS011;9019;48.132;-1.210;2024-01-15T01:36:30;55.13;;;31.03;;
17790;SDS011;9019;48.132;-1.210;2024-01-15T01:38:58;54.50;;;31.17;;
17790;SDS011;9019;48.132;-1.210;2024-01-15T01:41:25;54.73;;;30.90;;
17790;SDS011;9019;48.132;-1.210;2024-01-15T01:43:52;53.67;;;30.87;;
17790;SDS011;9019;48.132;-1.210;2024-01-15T01:46:20;55.07;;;30.80;;
17790;SDS011;9019;48.132;-1.210;2024-01-15T01:48:47;53.20;;;30.40;;
17790;SDS011;9019;48.132;-1.210;2024-01-15T01:51:14;52.40;;;30.00;;
17790;SDS011;9019;48.132;-1.210;2024-01-15T01:53:43;53.50;;;30.67;;
17790;SDS011;9019;48.132;-1.210;2024-01-15T01:56:11;53.97;;;30.03;;
17790;SDS011;9019;48.132;-1.210;2024-01-15T01:58:39;52.20;;;30.70;;
17790;SDS011;9019;48.132;-1.210;2024-01-15T02:01:06;53.37;;;31.40;;
17790;SDS011;9019;48.132;-1.210;2024-01-15T02:03:34;56.97;;;31.90;;
17790;SDS011;9019;48.132;-1.210;2024-01-15T02:06:01;53.27;;;31.13;;
17790;SDS011;9019;48.132;-1.210;2024-01-15T02:08:28;55.87;;;32.07;;
17790;SDS011;9019;48.132;-1.210;2024-01-15T02:10:57;53.77;;;32.27;;
17790;SDS011;9019;48.132;-1.210;2024-01-15T02:13:24;51.93;;;31.87;;
17790;SDS011;9019;48.132;-1.210;2024-01-15T02:15:51;58.73;;;33.33;;
17790;SDS011;9019;48.132;-1.210;2024-01-15T02:18:18;57.03;;;32.67;;
17790;SDS011;9019;48.132;-1.210;2024-01-15T02:20:46;55.33;;;31.93;;
17790;SDS011;9019;48.132;-1.210;2024-01-15T02:23:15;52.83;;;32.23;;
17790;SDS011;9019;48.132;-1.210;2024-01-15T02:25:43;57.87;;;32.77;;
17790;SDS011;9019;48.132;-1.210;2024-01-15T02:28:11;60.73;;;33.87;;
17790;SDS011;9019;48.132;-1.210;2024-01-15T02:30:39;55.47;;;32.03;;
17790;SDS011;9019;48.132;-1.210;2024-01-15T02:33:07;59.03;;;32.40;;
17790;SDS011;9019;48.132;-1.210;2024-01-15T02:35:35;56.70;;;32.53;;
17790;SDS011;9019;48.132;-1.210;2024-01-15T02:38:02;58.27;;;33.73;;
17790;SDS011;9019;48.132;-1.210;2024-01-15T02:40:31;54.87;;;31.90;;
17790;SDS011;9019;48.132;-1.210;2024-01-15T02:42:58;57.87;;;31.70;;
17790;SDS011;9019;48.132;-1.210;2024-01-15T02:45:26;56.80;;;31.50;;
17790;SDS011;9019;48.132;-1.210;2024-01-15T02:47:53;54.13;;;31.13;;
17790;SDS011;9019;48.132;-1.210;2024-01-15T02:50:21;54.33;;;32.20;;
17790;SDS011;9019;48.132;-1.210;2024-01-15T02:52:48;56.93;;;32.83;;
17790;SDS011;9019;48.132;-1.210;2024-01-15T02:55:15;56.70;;;32.43;;
17790;SDS011;9019;48.132;-1.210;2024-01-15T02:57:44;58.93;;;33.43;;
17790;SDS011;9019;48.132;-1.210;2024-01-15T03:00:12;57.30;;;33.20;;
17790;SDS011;9019;48.132;-1.210;2024-01-15T03:02:39;63.23;;;34.40;;
17790;SDS011;9019;48.132;-1.210;2024-01-15T03:05:08;59.73;;;33.17;;
17790;SDS011;9019;48.132;-1.210;2024-01-15T03:07:35;57.23;;;34.27;;
17790;SDS011;9019;48.132;-1.210;2024-01-15T03:10:04;60.70;;;33.87;;
17790;SDS011;9019;48.132;-1.210;2024-01-15T03:12:32;60.93;;;33.73;;
17790;SDS011;9019;48.132;-1.210;2024-01-15T03:15:00;58.73;;;33.47;;
17790;SDS011;9019;48.132;-1.210;2024-01-15T03:17:27;60.27;;;33.33;;
17790;SDS011;9019;48.132;-1.210;2024-01-15T03:19:55;62.83;;;34.03;;
17790;SDS011;9019;48.132;-1.210;2024-01-15T03:22:22;61.03;;;33.87;;
17790;SDS011;9019;48.132;-1.210;2024-01-15T03:24:49;58.23;;;34.23;;
17790;SDS011;9019;48.132;-1.210;2024-01-15T03:27:16;62.33;;;34.53;;
17790;SDS011;9019;48.132;-1.210;2024-01-15T03:29:43;62.37;;;36.37;;
17790;SDS011;9019;48.132;-1.210;2024-01-15T03:32:12;69.53;;;38.13;;
17790;SDS011;9019;48.132;-1.210;2024-01-15T03:34:41;63.50;;;35.43;;
17790;SDS011;9019;48.132;-1.210;2024-01-15T03:37:08;62.87;;;37.07;;
17790;SDS011;9019;48.132;-1.210;2024-01-15T03:39:35;66.33;;;36.63;;
17790;SDS011;9019;48.132;-1.210;2024-01-15T03:42:03;69.23;;;37.07;;
17790;SDS011;9019;48.132;-1.210;2024-01-15T03:44:30;67.17;;;36.03;;
17790;SDS011;9019;48.132;-1.210;2024-01-15T03:46:57;64.50;;;35.43;;
17790;SDS011;9019;48.132;-1.210;2024-01-15T03:49:26;70.60;;;38.07;;
17790;SDS011;9019;48.132;-1.210;2024-01-15T03:51:53;65.87;;;36.63;;
17790;SDS011;9019;48.132;-1.210;2024-01-15T03:54:20;70.00;;;37.00;;
17790;SDS011;9019;48.132;-1.210;2024-01-15T03:56:48;68.43;;;38.97;;
17790;SDS011;9019;48.132;-1.210;2024-01-15T03:59:15;67.47;;;37.20;;
17790;SDS011;9019;48.132;-1.210;2024-01-15T04:01:47;68.10;;;36.37;;
17790;SDS011;9019;48.132;-1.210;2024-01-15T04:04:15;60.70;;;35.07;;
17790;SDS011;9019;48.132;-1.210;2024-01-15T04:06:44;66.53;;;37.30;;
17790;SDS011;9019;48.132;-1.210;2024-01-15T04:09:11;68.07;;;37.93;;
17790;SDS011;9019;48.132;-1.210;2024-01-15T04:11:39;70.70;;;38.17;;
17790;SDS011;9019;48.132;-1.210;2024-01-15T04:14:06;70.73;;;39.97;;
17790;SDS011;9019;48.132;-1.210;2024-01-15T04:16:33;67.13;;;36.47;;
17790;SDS011;9019;48.132;-1.210;2024-01-15T04:19:01;66.67;;;38.00;;
17790;SDS011;9019;48.132;-1.210;2024-01-15T04:21:28;69.83;;;38.83;;
17790;SDS011;9019;48.132;-1.210;2024-01-15T04:23:57;65.90;;;37.73;;
17790;SDS011;9019;48.132;-1.210;2024-01-15T04:26:24;68.03;;;37.87;;
17790;SDS011;9019;48.132;-1.210;2024-01-15T04:28:51;76.37;;;39.60;;
17790;SDS011;9019;48.132;-1.210;2024-01-15T04:31:22;77.57;;;39.37;;
17790;SDS011;9019;48.132;-1.210;2024-01-15T04:33:49;70.70;;;37.37;;
17790;SDS011;9019;48.132;-1.210;2024-01-15T04:36:17;67.67;;;37.40;;
17790;SDS011;9019;48.132;-1.210;2024-01-15T04:38:44;69.27;;;39.10;;
17790;SDS011;9019;48.132;-1.210;2024-01-15T04:41:13;68.80;;;38.60;;
17790;SDS011;9019;48.132;-1.210;2024-01-15T04:43:40;76.93;;;39.60;;
17790;SDS011;9019;48.132;-1.210;2024-01-15T04:46:07;72.77;;;38.60;;
17790;SDS011;9019;48.132;-1.210;2024-01-15T04:48:34;67.47;;;37.43;;
17790;SDS011;9019;48.132;-1.210;2024-01-15T04:51:03;68.27;;;36.57;;
17790;SDS011;9019;48.132;-1.210;2024-01-15T04:53:30;73.60;;;38.73;;
17790;SDS011;9019;48.132;-1.210;2024-01-15T04:55:58;71.80;;;38.17;;
17790;SDS011;9019;48.132;-1.210;2024-01-15T04:58:26;70.20;;;38.27;;
17790;SDS011;9019;48.132;-1.210;2024-01-15T05:00:54;72.70;;;38.80;;
17790;SDS011;9019;48.132;-1.210;2024-01-15T05:03:21;68.03;;;37.67;;
17790;SDS011;9019;48.132;-1.210;2024-01-15T05:05:48;70.17;;;38.03;;
17790;SDS011;9019;48.132;-1.210;2024-01-15T05:08:16;67.57;;;36.60;;
17790;SDS011;9019;48.132;-1.210;2024-01-15T05:10:43;69.70;;;36.77;;
17790;SDS011;9019;48.132;-1.210;2024-01-15T05:13:11;68.67;;;37.20;;
17790;SDS011;9019;48.132;-1.210;2024-01-15T05:15:39;67.33;;;36.67;;
17790;SDS011;9019;48.132;-1.210;2024-01-15T05:18:06;63.47;;;36.60;;
17790;SDS011;9019;48.132;-1.210;2024-01-15T05:20:34;69.93;;;36.87;;
17790;SDS011;9019;48.132;-1.210;2024-01-15T05:23:01;72.97;;;37.37;;
17790;SDS011;9019;48.132;-1.210;2024-01-15T05:25:28;69.50;;;36.30;;
17790;SDS011;9019;48.132;-1.210;2024-01-15T05:27:56;70.20;;;37.03;;
17790;SDS011;9019;48.132;-1.210;2024-01-15T05:30:23;69.70;;;36.00;;
17790;SDS011;9019;48.132;-1.210;2024-01-15T05:32:52;70.70;;;37.67;;
17790;SDS011;9019;48.132;-1.210;2024-01-15T05:35:19;71.83;;;38.50;;
17790;SDS011;9019;48.132;-1.210;2024-01-15T05:37:46;69.40;;;37.57;;
17790;SDS011;9019;48.132;-1.210;2024-01-15T05:40:13;71.20;;;36.97;;
17790;SDS011;9019;48.132;-1.210;2024-01-15T05:42:41;65.77;;;36.23;;
17790;SDS011;9019;48.132;-1.210;2024-01-15T05:45:08;67.83;;;36.50;;
17790;SDS011;9019;48.132;-1.210;2024-01-15T05:47:36;71.20;;;37.33;;
17790;SDS011;9019;48.132;-1.210;2024-01-15T05:50:05;65.97;;;35.83;;
17790;SDS011;9019;48.132;-1.210;2024-01-15T05:52:33;67.97;;;36.40;;
17790;SDS011;9019;48.132;-1.210;2024-01-15T05:55:00;66.20;;;34.87;;
17790;SDS011;9019;48.132;-1.210;2024-01-15T05:57:27;65.27;;;35.43;;
17790;SDS011;9019;48.132;-1.210;2024-01-15T05:59:55;64.77;;;35.80;;
17790;SDS011;9019;48.132;-1.210;2024-01-15T06:02:22;69.80;;;35.07;;
17790;SDS011;9019;48.132;-1.210;2024-01-15T06:04:49;65.63;;;34.67;;
17790;SDS011;9019;48.132;-1.210;2024-01-15T06:07:18;67.40;;;34.63;;
17790;SDS011;9019;48.132;-1.210;2024-01-15T06:09:45;69.53;;;35.47;;
17790;SDS011;9019;48.132;-1.210;2024-01-15T06:12:12;67.03;;;34.47;;
17790;SDS011;9019;48.132;-1.210;2024-01-15T06:14:40;67.00;;;34.43;;
17790;SDS011;9019;48.132;-1.210;2024-01-15T06:17:07;63.80;;;33.60;;
17790;SDS011;9019;48.132;-1.210;2024-01-15T06:19:35;70.77;;;36.60;;
17790;SDS011;9019;48.132;-1.210;2024-01-15T06:22:02;69.10;;;35.63;;
17790;SDS011;9019;48.132;-1.210;2024-01-15T06:24:30;68.13;;;36.17;;
17790;SDS011;9019;48.132;-1.210;2024-01-15T06:26:57;67.47;;;35.00;;
17790;SDS011;9019;48.132;-1.210;2024-01-15T06:29:25;63.63;;;35.67;;
17790;SDS011;9019;48.132;-1.210;2024-01-15T06:31:52;67.23;;;34.17;;
17790;SDS011;9019;48.132;-1.210;2024-01-15T06:34:19;62.90;;;33.83;;
17790;SDS011;9019;48.132;-1.210;2024-01-15T06:36:46;63.77;;;33.23;;
17790;SDS011;9019;48.132;-1.210;2024-01-15T06:39:14;66.40;;;32.77;;
17790;SDS011;9019;48.132;-1.210;2024-01-15T06:41:43;67.07;;;33.43;;
17790;SDS011;9019;48.132;-1.210;2024-01-15T06:44:10;63.47;;;32.97;;
17790;SDS011;9019;48.132;-1.210;2024-01-15T06:46:41;64.00;;;33.03;;
17790;SDS011;9019;48.132;-1.210;2024-01-15T06:49:09;63.37;;;33.10;;
17790;SDS011;9019;48.132;-1.210;2024-01-15T06:51:36;76.03;;;38.33;;
17790;SDS011;9019;48.132;-1.210;2024-01-15T06:54:03;220.63;;;135.50;;
17790;SDS011;9019;48.132;-1.210;2024-01-15T06:56:31;324.00;;;137.57;;
17790;SDS011;9019;48.132;-1.210;2024-01-15T06:58:59;377.33;;;225.17;;
17790;SDS011;9019;48.132;-1.210;2024-01-15T07:01:27;120.27;;;67.80;;
17790;SDS011;9019;48.132;-1.210;2024-01-15T07:03:55;74.90;;;38.43;;
17790;SDS011;9019;48.132;-1.210;2024-01-15T07:06:22;88.53;;;51.10;;
17790;SDS011;9019;48.132;-1.210;2024-01-15T07:08:49;81.10;;;41.80;;
17790;SDS011;9019;48.132;-1.210;2024-01-15T07:11:16;75.97;;;36.50;;
17790;SDS011;9019;48.132;-1.210;2024-01-15T07:13:44;72.47;;;35.77;;
17790;SDS011;9019;48.132;-1.210;2024-01-15T07:16:12;80.53;;;38.37;;
17790;SDS011;9019;48.132;-1.210;2024-01-15T07:18:40;76.07;;;35.73;;
17790;SDS011;9019;48.132;-1.210;2024-01-15T07:21:07;77.93;;;37.03;;
17790;SDS011;9019;48.132;-1.210;2024-01-15T07:23:35;81.07;;;37.20;;
17790;SDS011;9019;48.132;-1.210;2024-01-15T07:26:02;77.53;;;38.00;;
17790;SDS011;9019;48.132;-1.210;2024-01-15T07:28:30;79.03;;;38.10;;
17790;SDS011;9019;48.132;-1.210;2024-01-15T07:30:57;80.53;;;39.43;;
17790;SDS011;9019;48.132;-1.210;2024-01-15T07:33:27;83.93;;;40.37;;
17790;SDS011;9019;48.132;-1.210;2024-01-15T07:35:55;73.80;;;38.40;;
17790;SDS011;9019;48.132;-1.210;2024-01-15T07:38:22;73.33;;;36.03;;
17790;SDS011;9019;48.132;-1.210;2024-01-15T07:40:49;69.33;;;34.20;;
17790;SDS011;9019;48.132;-1.210;2024-01-15T07:43:16;64.87;;;33.07;;
17790;SDS011;9019;48.132;-1.210;2024-01-15T07:45:43;66.73;;;32.90;;
17790;SDS011;9019;48.132;-1.210;2024-01-15T07:48:11;65.73;;;32.57;;
17790;SDS011;9019;48.132;-1.210;2024-01-15T07:50:40;75.50;;;34.50;;
17790;SDS011;9019;48.132;-1.210;2024-01-15T07:53:07;71.53;;;36.23;;
17790;SDS011;9019;48.132;-1.210;2024-01-15T07:55:35;72.73;;;37.93;;
17790;SDS011;9019;48.132;-1.210;2024-01-15T07:58:02;70.77;;;35.93;;
17790;SDS011;9019;48.132;-1.210;2024-01-15T08:00:30;69.20;;;35.60;;
17790;SDS011;9019;48.132;-1.210;2024-01-15T08:02:57;72.60;;;35.67;;
17790;SDS011;9019;48.132;-1.210;2024-01-15T08:05:25;76.93;;;36.23;;
17790;SDS011;9019;48.132;-1.210;2024-01-15T08:07:54;68.77;;;34.37;;
17790;SDS011;9019;48.132;-1.210;2024-01-15T08:10:21;69.87;;;34.17;;
17790;SDS011;9019;48.132;-1.210;2024-01-15T08:12:48;71.97;;;33.37;;
17790;SDS011;9019;48.132;-1.210;2024-01-15T08:15:16;72.63;;;35.07;;
17790;SDS011;9019;48.132;-1.210;2024-01-15T08:17:43;69.60;;;33.87;;
17790;SDS011;9019;48.132;-1.210;2024-01-15T08:20:10;77.90;;;39.37;;
17790;SDS011;9019;48.132;-1.210;2024-01-15T08:22:38;78.30;;;36.97;;
17790;SDS011;9019;48.132;-1.210;2024-01-15T08:25:07;79.17;;;38.93;;
17790;SDS011;9019;48.132;-1.210;2024-01-15T08:27:36;92.47;;;46.40;;
17790;SDS011;9019;48.132;-1.210;2024-01-15T08:30:03;72.83;;;36.50;;
17790;SDS011;9019;48.132;-1.210;2024-01-15T08:32:31;72.97;;;34.73;;
17790;SDS011;9019;48.132;-1.210;2024-01-15T08:34:58;67.53;;;33.13;;
17790;SDS011;9019;48.132;-1.210;2024-01-15T08:37:25;62.03;;;31.63;;
17790;SDS011;9019;48.132;-1.210;2024-01-15T08:39:52;62.17;;;31.43;;
17790;SDS011;9019;48.132;-1.210;2024-01-15T08:42:21;64.33;;;31.33;;
17790;SDS011;9019;48.132;-1.210;2024-01-15T08:44:49;62.87;;;30.90;;
17790;SDS011;9019;48.132;-1.210;2024-01-15T08:47:17;64.63;;;31.20;;
17790;SDS011;9019;48.132;-1.210;2024-01-15T08:49:44;65.13;;;30.20;;
17790;SDS011;9019;48.132;-1.210;2024-01-15T08:52:11;73.03;;;35.23;;
17790;SDS011;9019;48.132;-1.210;2024-01-15T08:54:39;66.70;;;32.60;;
17790;SDS011;9019;48.132;-1.210;2024-01-15T08:57:06;80.33;;;40.33;;
17790;SDS011;9019;48.132;-1.210;2024-01-15T08:59:35;71.33;;;36.80;;
17790;SDS011;9019;48.132;-1.210;2024-01-15T09:02:03;66.63;;;34.10;;
17790;SDS011;9019;48.132;-1.210;2024-01-15T09:04:32;66.57;;;34.53;;
17790;SDS011;9019;48.132;-1.210;2024-01-15T09:06:59;65.67;;;34.77;;
17790;SDS011;9019;48.132;-1.210;2024-01-15T09:09:27;59.20;;;30.10;;
17790;SDS011;9019;48.132;-1.210;2024-01-15T09:11:54;56.00;;;28.47;;
17790;SDS011;9019;48.132;-1.210;2024-01-15T09:14:21;51.97;;;27.80;;
17790;SDS011;9019;48.132;-1.210;2024-01-15T09:16:51;54.30;;;28.40;;
17790;SDS011;9019;48.132;-1.210;2024-01-15T09:19:18;50.10;;;27.20;;
17790;SDS011;9019;48.132;-1.210;2024-01-15T09:21:45;54.50;;;29.70;;
17790;SDS011;9019;48.132;-1.210;2024-01-15T09:24:13;62.50;;;35.63;;
17790;SDS011;9019;48.132;-1.210;2024-01-15T09:26:40;51.40;;;28.30;;
17790;SDS011;9019;48.132;-1.210;2024-01-15T09:29:07;49.43;;;27.50;;
17790;SDS011;9019;48.132;-1.210;2024-01-15T09:31:35;47.57;;;26.87;;
17790;SDS011;9019;48.132;-1.210;2024-01-15T09:34:03;47.10;;;27.00;;
17790;SDS011;9019;48.132;-1.210;2024-01-15T09:36:31;44.00;;;27.60;;
17790;SDS011;9019;48.132;-1.210;2024-01-15T09:38:58;43.43;;;24.17;;
17790;SDS011;9019;48.132;-1.210;2024-01-15T09:41:25;39.83;;;24.13;;
17790;SDS011;9019;48.132;-1.210;2024-01-15T09:43:53;42.07;;;24.13;;
17790;SDS011;9019;48.132;-1.210;2024-01-15T09:46:20;39.60;;;23.80;;
17790;SDS011;9019;48.132;-1.210;2024-01-15T09:48:48;39.60;;;21.73;;
17790;SDS011;9019;48.132;-1.210;2024-01-15T09:51:16;35.77;;;22.13;;
17790;SDS011;9019;48.132;-1.210;2024-01-15T09:53:44;37.60;;;22.23;;
17790;SDS011;9019;48.132;-1.210;2024-01-15T09:56:12;35.20;;;22.17;;
17790;SDS011;9019;48.132;-1.210;2024-01-15T09:58:39;34.67;;;21.43;;
17790;SDS011;9019;48.132;-1.210;2024-01-15T10:01:07;36.13;;;22.10;;
17790;SDS011;9019;48.132;-1.210;2024-01-15T10:03:35;34.70;;;20.70;;
17790;SDS011;9019;48.132;-1.210;2024-01-15T10:06:03;31.57;;;19.13;;
17790;SDS011;9019;48.132;-1.210;2024-01-15T10:08:32;29.13;;;18.77;;
17790;SDS011;9019;48.132;-1.210;2024-01-15T10:10:59;26.63;;;17.67;;
17790;SDS011;9019;48.132;-1.210;2024-01-15T10:13:27;27.60;;;17.83;;
17790;SDS011;9019;48.132;-1.210;2024-01-15T10:15:54;25.47;;;17.30;;
17790;SDS011;9019;48.132;-1.210;2024-01-15T10:18:23;24.63;;;16.20;;
17790;SDS011;9019;48.132;-1.210;2024-01-15T10:20:50;27.80;;;18.90;;
17790;SDS011;9019;48.132;-1.210;2024-01-15T10:23:18;26.77;;;17.33;;
17790;SDS011;9019;48.132;-1.210;2024-01-15T10:25:47;18.83;;;12.50;;
17790;SDS011;9019;48.132;-1.210;2024-01-15T10:28:16;21.30;;;13.63;;
17790;SDS011;9019;48.132;-1.210;2024-01-15T10:30:45;22.13;;;14.87;;
17790;SDS011;9019;48.132;-1.210;2024-01-15T10:33:13;24.00;;;13.40;;
17790;SDS011;9019;48.132;-1.210;2024-01-15T10:35:40;20.07;;;13.40;;
17790;SDS011;9019;48.132;-1.210;2024-01-15T10:38:08;20.30;;;12.70;;
17790;SDS011;9019;48.132;-1.210;2024-01-15T10:40:35;18.50;;;12.53;;
17790;SDS011;9019;48.132;-1.210;2024-01-15T10:43:03;16.80;;;11.70;;
17790;SDS011;9019;48.132;-1.210;2024-01-15T10:45:31;17.60;;;12.03;;
17790;SDS011;9019;48.132;-1.210;2024-01-15T10:47:58;15.23;;;10.73;;
17790;SDS011;9019;48.132;-1.210;2024-01-15T10:50:27;13.90;;;8.63;;
17790;SDS011;9019;48.132;-1.210;2024-01-15T10:52:56;12.43;;;9.50;;
17790;SDS011;9019;48.132;-1.210;2024-01-15T10:55:24;18.47;;;13.40;;
17790;SDS011;9019;48.132;-1.210;2024-01-15T10:57:52;14.30;;;10.00;;
17790;SDS011;9019;48.132;-1.210;2024-01-15T11:00:23;17.30;;;10.77;;
17790;SDS011;9019;48.132;-1.210;2024-01-15T11:02:50;17.63;;;11.50;;
17790;SDS011;9019;48.132;-1.210;2024-01-15T11:05:20;16.37;;;11.43;;
17790;SDS011;9019;48.132;-1.210;2024-01-15T11:07:48;16.07;;;10.23;;
17790;SDS011;9019;48.132;-1.210;2024-01-15T11:13:01;16.47;;;9.70;;
17790;SDS011;9019;48.132;-1.210;2024-01-15T11:15:31;15.53;;;11.33;;
17790;SDS011;9019;48.132;-1.210;2024-01-15T11:17:59;14.90;;;10.87;;
17790;SDS011;9019;48.132;-1.210;2024-01-15T11:20:28;14.90;;;10.20;;
17790;SDS011;9019;48.132;-1.210;2024-01-15T11:22:56;15.97;;;11.53;;
17790;SDS011;9019;48.132;-1.210;2024-01-15T11:25:24;17.97;;;10.93;;
17790;SDS011;9019;48.132;-1.210;2024-01-15T11:28:01;14.57;;;10.73;;
17790;SDS011;9019;48.132;-1.210;2024-01-15T11:30:28;15.77;;;10.70;;
17790;SDS011;9019;48.132;-1.210;2024-01-15T11:32:57;15.03;;;10.17;;
17790;SDS011;9019;48.132;-1.210;2024-01-15T11:35:24;14.40;;;10.67;;
17790;SDS011;9019;48.132;-1.210;2024-01-15T11:38:12;13.47;;;9.43;;
17790;SDS011;9019;48.132;-1.210;2024-01-15T11:40:53;12.40;;;9.97;;
17790;SDS011;9019;48.132;-1.210;2024-01-15T11:43:20;8.30;;;5.43;;
17790;SDS011;9019;48.132;-1.210;2024-01-15T11:45:49;8.63;;;4.03;;
17790;SDS011;9019;48.132;-1.210;2024-01-15T11:48:20;7.70;;;4.40;;
17790;SDS011;9019;48.132;-1.210;2024-01-15T11:50:50;4.80;;;3.53;;
17790;SDS011;9019;48.132;-1.210;2024-01-15T11:53:20;6.17;;;4.00;;
17790;SDS011;9019;48.132;-1.210;2024-01-15T11:55:48;7.30;;;4.73;;
17790;SDS011;9019;48.132;-1.210;2024-01-15T11:58:18;6.43;;;4.27;;
17790;SDS011;9019;48.132;-1.210;2024-01-15T12:00:47;6.67;;;3.87;;
17790;SDS011;9019;48.132;-1.210;2024-01-15T12:03:14;7.47;;;4.63;;
17790;SDS011;9019;48.132;-1.210;2024-01-15T12:05:43;7.33;;;4.47;;
17790;SDS011;9019;48.132;-1.210;2024-01-15T12:08:10;7.00;;;5.03;;
17790;SDS011;9019;48.132;-1.210;2024-01-15T12:10:38;9.30;;;5.70;;
17790;SDS011;9019;48.132;-1.210;2024-01-15T12:13:06;11.03;;;8.17;;
17790;SDS011;9019;48.132;-1.210;2024-01-15T12:15:36;16.83;;;13.07;;
17790;SDS011;9019;48.132;-1.210;2024-01-15T12:18:06;8.67;;;4.83;;
17790;SDS011;9019;48.132;-1.210;2024-01-15T12:20:34;68.50;;;48.27;;
17790;SDS011;9019;48.132;-1.210;2024-01-15T12:23:03;31.87;;;21.43;;
17790;SDS011;9019;48.132;-1.210;2024-01-15T12:25:31;54.80;;;36.20;;
17790;SDS011;9019;48.132;-1.210;2024-01-15T12:27:58;14.57;;;9.37;;
17790;SDS011;9019;48.132;-1.210;2024-01-15T12:30:26;20.77;;;18.47;;
17790;SDS011;9019;48.132;-1.210;2024-01-15T12:32:54;10.63;;;7.03;;
17790;SDS011;9019;48.132;-1.210;2024-01-15T12:35:23;15.07;;;11.07;;
17790;SDS011;9019;48.132;-1.210;2024-01-15T12:37:51;8.53;;;4.30;;
17790;SDS011;9019;48.132;-1.210;2024-01-15T12:40:20;42.63;;;27.60;;
17790;SDS011;9019;48.132;-1.210;2024-01-15T12:42:48;18.23;;;10.63;;
17790;SDS011;9019;48.132;-1.210;2024-01-15T12:45:15;10.57;;;6.30;;
17790;SDS011;9019;48.132;-1.210;2024-01-15T12:47:43;13.37;;;8.03;;
17790;SDS011;9019;48.132;-1.210;2024-01-15T12:50:10;15.87;;;8.87;;
17790;SDS011;9019;48.132;-1.210;2024-01-15T12:52:39;13.13;;;8.77;;
17790;SDS011;9019;48.132;-1.210;2024-01-15T12:55:07;35.60;;;23.10;;
17790;SDS011;9019;48.132;-1.210;2024-01-15T12:57:36;10.53;;;7.27;;
17790;SDS011;9019;48.132;-1.210;2024-01-15T13:00:04;25.77;;;18.07;;
17790;SDS011;9019;48.132;-1.210;2024-01-15T13:02:33;11.33;;;6.60;;
17790;SDS011;9019;48.132;-1.210;2024-01-15T13:05:01;8.93;;;6.53;;
17790;SDS011;9019;48.132;-1.210;2024-01-15T13:07:30;23.00;;;15.43;;
17790;SDS011;9019;48.132;-1.210;2024-01-15T13:09:58;40.77;;;26.43;;
17790;SDS011;9019;48.132;-1.210;2024-01-15T13:12:25;30.83;;;19.37;;
17790;SDS011;9019;48.132;-1.210;2024-01-15T13:14:54;14.20;;;9.37;;
17790;SDS011;9019;48.132;-1.210;2024-01-15T13:17:21;54.27;;;33.13;;
17790;SDS011;9019;48.132;-1.210;2024-01-15T13:19:48;45.03;;;27.97;;
17790;SDS011;9019;48.132;-1.210;2024-01-15T13:22:15;12.50;;;7.83;;
17790;SDS011;9019;48.132;-1.210;2024-01-15T13:24:42;21.90;;;14.63;;
17790;SDS011;9019;48.132;-1.210;2024-01-15T13:27:10;53.47;;;33.73;;
17790;SDS011;9019;48.132;-1.210;2024-01-15T13:29:38;37.13;;;23.83;;
17790;SDS011;9019;48.132;-1.210;2024-01-15T13:32:06;10.13;;;6.90;;
17790;SDS011;9019;48.132;-1.210;2024-01-15T13:34:35;9.37;;;5.63;;
17790;SDS011;9019;48.132;-1.210;2024-01-15T13:37:02;37.07;;;24.90;;
17790;SDS011;9019;48.132;-1.210;2024-01-15T13:39:29;11.00;;;6.80;;
17790;SDS011;9019;48.132;-1.210;2024-01-15T13:41:58;12.40;;;8.47;;
17790;SDS011;9019;48.132;-1.210;2024-01-15T13:44:26;28.37;;;17.77;;
17790;SDS011;9019;48.132;-1.210;2024-01-15T13:46:53;9.40;;;6.03;;
17790;SDS011;9019;48.132;-1.210;2024-01-15T13:49:23;62.20;;;39.13;;
17790;SDS011;9019;48.132;-1.210;2024-01-15T13:51:50;22.27;;;13.17;;
17790;SDS011;9019;48.132;-1.210;2024-01-15T13:54:18;13.13;;;8.70;;
17790;SDS011;9019;48.132;-1.210;2024-01-15T13:56:45;22.47;;;13.57;;
17790;SDS011;9019;48.132;-1.210;2024-01-15T13:59:13;30.37;;;19.87;;
17790;SDS011;9019;48.132;-1.210;2024-01-15T14:01:40;16.57;;;11.47;;
17790;SDS011;9019;48.132;-1.210;2024-01-15T14:04:07;15.07;;;10.23;;
17790;SDS011;9019;48.132;-1.210;2024-01-15T14:06:36;6.87;;;4.70;;
17790;SDS011;9019;48.132;-1.210;2024-01-15T14:09:04;6.63;;;4.23;;
17790;SDS011;9019;48.132;-1.210;2024-01-15T14:11:35;14.07;;;9.27;;
17790;SDS011;9019;48.132;-1.210;2024-01-15T14:14:02;8.60;;;5.30;;
17790;SDS011;9019;48.132;-1.210;2024-01-15T14:16:29;12.30;;;7.43;;
17790;SDS011;9019;48.132;-1.210;2024-01-15T14:18:56;12.53;;;9.40;;
17790;SDS011;9019;48.132;-1.210;2024-01-15T14:21:24;7.67;;;3.83;;
17790;SDS011;9019;48.132;-1.210;2024-01-15T14:23:52;18.47;;;12.83;;
17790;SDS011;9019;48.132;-1.210;2024-01-15T14:26:20;5.33;;;3.40;;
17790;SDS011;9019;48.132;-1.210;2024-01-15T14:28:47;6.50;;;4.27;;